Time;durP1;ratioP1;P1;durP2;ratioP2;P2;SDS_P1;SDS_P2;PMS_P1;PMS_P2;Temp;Humidity;BMP_temperature;BMP_pressure;BME280_temperature;BME280_humidity;BME280_pressure;Samples;Min_cycle;Max_cycle;Signal;HPM_P1;HPM_P2
2023/12/25 00:01:47;;;;;;;9.02;2.10;;;12.40;99.90;;;;;;4954993;28;92878;-80
2023/12/25 00:04:13;;;;;;;9.68;2.25;;;12.50;99.90;;;;;;4928905;28;92182;-80
2023/12/25 00:06:39;;;;;;;6.35;2.13;;;12.50;99.90;;;;;;4958127;28;93301;-79
2023/12/25 00:09:04;;;;;;;7.05;1.98;;;12.50;99.90;;;;;;4954992;28;93054;-79
2023/12/25 00:11:30;;;;;;;6.82;2.17;;;12.50;99.90;;;;;;4944293;28;92835;-80
2023/12/25 00:13:57;;;;;;;6.18;2.13;;;12.60;99.90;;;;;;4956633;28;92072;-79
2023/12/25 00:16:26;;;;;;;9.85;2.40;;;12.50;99.90;;;;;;4951703;28;94227;-80
2023/12/25 00:18:52;;;;;;;7.32;2.45;;;12.50;99.90;;;;;;4952771;28;92789;-82
2023/12/25 00:21:18;;;;;;;6.40;2.30;;;12.60;99.90;;;;;;4938296;28;93298;-80
2023/12/25 00:23:44;;;;;;;5.15;1.88;;;12.60;99.90;;;;;;4934134;28;92867;-82
2023/12/25 00:26:10;;;;;;;6.35;2.10;;;12.70;99.90;;;;;;4950699;28;92722;-79
2023/12/25 00:28:36;;;;;;;6.90;2.03;;;12.70;99.90;;;;;;4953666;28;95295;-79
2023/12/25 00:31:02;;;;;;;6.03;2.35;;;12.70;99.90;;;;;;4926797;28;92489;-80
2023/12/25 00:33:27;;;;;;;6.35;2.90;;;12.80;99.90;;;;;;4925028;28;92953;-81
2023/12/25 00:35:53;;;;;;;6.25;1.88;;;12.60;99.90;;;;;;4940847;28;92711;-79
2023/12/25 00:38:18;;;;;;;6.28;1.92;;;12.60;99.90;;;;;;4939194;28;94991;-79
2023/12/25 00:40:44;;;;;;;4.93;2.00;;;12.40;99.90;;;;;;4954267;28;92931;-81
2023/12/25 00:43:10;;;;;;;5.75;2.00;;;12.30;99.90;;;;;;4939485;28;92675;-81
2023/12/25 00:45:35;;;;;;;5.32;1.90;;;12.20;99.90;;;;;;4944704;28;94286;-81
2023/12/25 00:48:02;;;;;;;5.85;2.20;;;12.20;99.90;;;;;;4944830;28;93757;-80
2023/12/25 00:50:28;;;;;;;5.78;2.22;;;12.10;99.90;;;;;;4951496;28;92810;-80
2023/12/25 00:52:54;;;;;;;3.65;1.90;;;12.10;99.90;;;;;;4947481;28;92820;-81
2023/12/25 00:55:19;;;;;;;10.00;2.10;;;12.20;99.90;;;;;;4946938;28;94482;-79
2023/12/25 00:57:45;;;;;;;9.50;2.35;;;12.20;99.90;;;;;;4933997;28;94060;-78
2023/12/25 01:00:11;;;;;;;6.65;2.65;;;12.20;99.90;;;;;;4949743;28;92387;-79
2023/12/25 01:02:37;;;;;;;9.93;2.30;;;12.20;99.90;;;;;;4948693;28;92288;-81
2023/12/25 01:05:03;;;;;;;10.15;2.03;;;12.30;99.90;;;;;;4929770;28;95746;-80
2023/12/25 01:07:29;;;;;;;5.78;2.92;;;12.30;99.90;;;;;;4944640;28;92933;-80
2023/12/25 01:09:55;;;;;;;4.38;2.17;;;12.30;99.90;;;;;;4940947;28;93595;-80
2023/12/25 01:12:21;;;;;;;9.20;2.15;;;12.30;99.90;;;;;;4931112;28;92870;-79
2023/12/25 01:14:46;;;;;;;8.18;2.30;;;12.40;99.90;;;;;;4943137;28;93795;-82
2023/12/25 01:17:12;;;;;;;5.68;1.90;;;12.30;99.90;;;;;;4945043;28;93988;-80
2023/12/25 01:19:38;;;;;;;6.50;1.88;;;12.30;99.90;;;;;;4967380;28;91876;-80
2023/12/25 01:22:06;;;;;;;5.88;1.73;;;12.30;99.90;;;;;;4966253;28;91988;-82
2023/12/25 01:24:32;;;;;;;7.85;1.80;;;12.40;99.90;;;;;;4956160;28;95338;-81
2023/12/25 01:26:58;;;;;;;7.55;1.80;;;12.40;99.90;;;;;;4958786;28;92586;-80
2023/12/25 01:29:23;;;;;;;3.83;1.55;;;12.40;99.90;;;;;;4963384;28;92108;-80
2023/12/25 01:31:49;;;;;;;7.35;1.90;;;12.40;99.90;;;;;;4952814;28;92638;-81
2023/12/25 01:34:15;;;;;;;8.43;1.92;;;12.40;99.90;;;;;;4958480;28;93816;-81
2023/12/25 01:36:40;;;;;;;5.00;1.48;;;12.40;99.90;;;;;;4962242;28;94444;-81
2023/12/25 01:39:06;;;;;;;9.15;1.48;;;12.40;99.90;;;;;;4960750;28;92656;-81
2023/12/25 01:41:34;;;;;;;3.47;1.60;;;12.40;99.90;;;;;;4947132;28;92373;-80
2023/12/25 01:43:59;;;;;;;5.57;1.30;;;12.40;99.90;;;;;;4962932;28;92522;-80
2023/12/25 01:46:25;;;;;;;6.53;2.28;;;12.40;99.90;;;;;;4941534;28;93569;-79
2023/12/25 01:48:52;;;;;;;7.40;1.70;;;12.50;99.90;;;;;;4952358;28;93048;-80
2023/12/25 01:51:21;;;;;;;6.60;1.50;;;12.50;99.90;;;;;;4940529;28;92117;-80
2023/12/25 01:53:47;;;;;;;6.47;1.60;;;12.50;99.90;;;;;;4931949;28;95235;-79
2023/12/25 01:56:13;;;;;;;6.90;1.38;;;12.50;99.90;;;;;;4938072;28;94731;-81
2023/12/25 01:58:39;;;;;;;8.18;1.48;;;12.50;99.90;;;;;;4953302;28;93496;-80
2023/12/25 02:01:04;;;;;;;8.50;1.80;;;12.60;99.90;;;;;;4952709;28;92974;-80
2023/12/25 02:03:30;;;;;;;6.78;1.30;;;12.60;99.90;;;;;;4932786;28;93587;-81
2023/12/25 02:05:57;;;;;;;9.15;1.55;;;12.60;99.90;;;;;;4955497;28;92661;-80
2023/12/25 02:08:23;;;;;;;8.40;1.48;;;12.60;99.90;;;;;;4952918;28;92730;-80
2023/12/25 02:10:48;;;;;;;7.60;1.17;;;12.60;99.90;;;;;;4956323;28;92366;-81
2023/12/25 02:13:14;;;;;;;5.35;1.30;;;12.50;99.90;;;;;;4937949;28;95728;-81
2023/12/25 02:15:40;;;;;;;7.13;1.38;;;12.60;99.90;;;;;;4954898;28;93474;-80
2023/12/25 02:18:08;;;;;;;6.35;1.20;;;12.60;99.90;;;;;;4945091;28;92337;-83
2023/12/25 02:20:34;;;;;;;5.28;1.50;;;12.60;99.90;;;;;;4940144;28;92156;-81
2023/12/25 02:23:04;;;;;;;5.15;1.27;;;12.60;99.90;;;;;;4937799;28;95306;-80
2023/12/25 02:25:32;;;;;;;5.55;1.23;;;12.60;99.90;;;;;;4954645;28;92898;-78
2023/12/25 02:27:58;;;;;;;3.28;1.20;;;12.60;99.90;;;;;;4931492;28;92536;-79
2023/12/25 02:30:24;;;;;;;3.17;0.88;;;12.60;99.90;;;;;;4939907;28;92648;-80
2023/12/25 02:32:50;;;;;;;2.47;1.00;;;12.50;99.90;;;;;;4941173;28;93098;-79
2023/12/25 02:35:16;;;;;;;3.15;0.93;;;12.50;99.90;;;;;;4941765;28;92834;-79
2023/12/25 02:37:41;;;;;;;2.28;0.82;;;12.30;99.90;;;;;;4937899;28;93022;-79
2023/12/25 02:40:08;;;;;;;4.93;1.30;;;12.30;99.90;;;;;;4937910;28;91848;-79
2023/12/25 02:42:33;;;;;;;3.65;0.70;;;12.30;99.90;;;;;;4947463;28;95863;-79
2023/12/25 02:44:59;;;;;;;4.53;0.95;;;12.20;99.90;;;;;;4944772;28;93721;-79
2023/12/25 02:47:25;;;;;;;3.28;0.90;;;12.10;99.90;;;;;;4926645;28;94057;-79
2023/12/25 02:49:51;;;;;;;2.55;0.75;;;12.00;99.90;;;;;;4934321;28;92789;-81
2023/12/25 02:52:16;;;;;;;4.72;1.15;;;12.00;99.90;;;;;;4948160;28;93142;-80
2023/12/25 02:54:42;;;;;;;1.90;0.60;;;12.00;99.90;;;;;;4936095;28;92752;-78
2023/12/25 02:57:08;;;;;;;2.10;0.63;;;12.00;99.90;;;;;;4949801;28;92862;-81
2023/12/25 02:59:33;;;;;;;4.10;0.57;;;12.00;99.90;;;;;;4941126;28;93068;-79
2023/12/25 03:01:59;;;;;;;2.05;0.55;;;12.00;99.90;;;;;;4945762;28;93736;-79
2023/12/25 03:04:25;;;;;;;2.05;0.70;;;12.00;99.90;;;;;;4949114;28;93554;-82
2023/12/25 03:06:50;;;;;;;3.22;0.80;;;11.90;99.90;;;;;;4942764;28;92574;-81
2023/12/25 03:09:16;;;;;;;2.33;0.70;;;11.90;99.90;;;;;;4934119;28;92148;-79
2023/12/25 03:11:43;;;;;;;2.45;0.63;;;12.00;99.90;;;;;;4945299;28;96160;-79
2023/12/25 03:14:09;;;;;;;2.05;0.50;;;12.00;99.90;;;;;;4945529;28;93453;-79
2023/12/25 03:16:34;;;;;;;2.80;0.52;;;12.00;99.90;;;;;;4951059;28;92593;-79
2023/12/25 03:19:00;;;;;;;1.05;0.55;;;12.10;99.90;;;;;;4935114;28;92546;-77
2023/12/25 03:21:25;;;;;;;1.55;0.40;;;12.10;99.90;;;;;;4950539;28;96401;-79
2023/12/25 03:23:51;;;;;;;1.33;0.45;;;12.10;99.90;;;;;;4951948;28;93879;-79
2023/12/25 03:26:17;;;;;;;2.80;0.50;;;12.10;99.90;;;;;;4945434;28;92591;-78
2023/12/25 03:28:42;;;;;;;2.78;0.40;;;12.10;99.90;;;;;;4943529;28;91839;-79
2023/12/25 03:31:08;;;;;;;1.85;0.30;;;12.10;99.90;;;;;;4931399;28;95410;-81
2023/12/25 03:33:34;;;;;;;0.75;0.30;;;12.10;99.90;;;;;;4935321;28;93695;-78
2023/12/25 03:36:00;;;;;;;1.63;0.45;;;12.10;99.90;;;;;;4940677;28;93606;-79
2023/12/25 03:38:26;;;;;;;2.63;0.63;;;12.10;99.90;;;;;;4937529;28;92495;-80
2023/12/25 03:40:51;;;;;;;3.25;0.45;;;12.10;99.90;;;;;;4926765;28;95700;-79
2023/12/25 03:43:17;;;;;;;1.63;0.30;;;12.10;99.90;;;;;;4918232;28;95157;-79
2023/12/25 03:45:43;;;;;;;2.70;0.63;;;12.10;99.90;;;;;;4935090;28;92682;-79
2023/12/25 03:48:09;;;;;;;1.58;0.55;;;12.10;99.90;;;;;;4936161;28;92657;-78
2023/12/25 03:50:35;;;;;;;2.22;0.40;;;12.20;99.90;;;;;;4923879;28;95064;-80
2023/12/25 03:53:00;;;;;;;3.50;0.50;;;12.20;99.90;;;;;;4936955;28;93187;-78
2023/12/25 03:55:26;;;;;;;2.13;0.50;;;12.10;99.90;;;;;;4938711;28;92383;-80
2023/12/25 03:57:51;;;;;;;1.83;0.50;;;12.10;99.90;;;;;;4922735;28;93442;-79
2023/12/25 04:00:17;;;;;;;6.30;0.82;;;12.10;99.90;;;;;;4945755;28;95042;-81
2023/12/25 04:02:43;;;;;;;1.05;0.47;;;12.10;99.90;;;;;;4955858;28;93972;-82
2023/12/25 04:05:09;;;;;;;2.15;0.63;;;12.20;99.90;;;;;;4952002;28;92520;-81
2023/12/25 04:07:35;;;;;;;2.97;0.65;;;12.30;99.90;;;;;;4961617;22;92546;-83
2023/12/25 04:10:02;;;;;;;3.10;0.63;;;12.30;99.90;;;;;;4939248;28;92687;-85
2023/12/25 04:12:28;;;;;;;5.10;0.60;;;12.30;99.90;;;;;;4926117;28;92788;-83
2023/12/25 04:14:54;;;;;;;3.45;0.80;;;12.40;99.90;;;;;;4907564;28;92610;-83
2023/12/25 04:17:21;;;;;;;3.75;0.73;;;12.40;99.90;;;;;;4922706;28;92035;-81
2023/12/25 04:19:48;;;;;;;4.50;0.80;;;12.40;99.90;;;;;;4940372;28;92202;-83
2023/12/25 04:22:14;;;;;;;4.55;0.70;;;12.40;99.90;;;;;;4897600;28;93402;-82
2023/12/25 04:24:41;;;;;;;6.10;0.73;;;12.40;99.90;;;;;;4921023;28;93160;-82
2023/12/25 04:27:07;;;;;;;3.17;0.68;;;12.40;99.90;;;;;;4914729;28;92755;-82
2023/12/25 04:29:33;;;;;;;2.90;0.70;;;12.40;99.90;;;;;;4934720;28;92917;-83
2023/12/25 04:32:00;;;;;;;5.13;1.08;;;12.40;99.90;;;;;;4923317;28;92665;-83
2023/12/25 04:34:26;;;;;;;3.40;1.38;;;12.40;99.90;;;;;;4934353;28;93572;-84
2023/12/25 04:36:52;;;;;;;2.50;0.75;;;12.40;99.90;;;;;;4917546;28;92629;-83
2023/12/25 04:39:18;;;;;;;3.15;0.60;;;12.30;99.90;;;;;;4921721;28;93826;-81
2023/12/25 04:41:51;;;;;;;3.03;0.70;;;12.40;99.90;;;;;;4937244;28;92903;-82
2023/12/25 04:44:17;;;;;;;3.28;0.80;;;12.50;99.90;;;;;;4918323;28;92197;-81
2023/12/25 04:46:43;;;;;;;2.65;0.75;;;12.40;99.90;;;;;;4918025;28;92202;-82
2023/12/25 04:49:09;;;;;;;3.35;0.50;;;12.40;99.90;;;;;;4939138;28;93658;-80
2023/12/25 04:51:35;;;;;;;2.55;0.73;;;12.20;99.90;;;;;;4924825;28;94170;-84
2023/12/25 04:54:02;;;;;;;3.45;0.75;;;12.10;99.90;;;;;;4922213;28;92089;-82
2023/12/25 04:56:28;;;;;;;7.30;1.02;;;12.00;99.90;;;;;;4943465;28;92906;-80
2023/12/25 04:58:54;;;;;;;2.72;0.73;;;12.00;99.90;;;;;;4943610;28;92186;-82
2023/12/25 05:01:20;;;;;;;6.40;1.20;;;12.00;99.90;;;;;;4935421;28;94356;-83
2023/12/25 05:03:46;;;;;;;2.78;0.73;;;11.90;99.90;;;;;;4921477;28;92255;-83
2023/12/25 05:06:12;;;;;;;4.15;0.70;;;11.80;99.90;;;;;;4921172;28;91754;-81
2023/12/25 05:08:37;;;;;;;9.68;1.40;;;11.80;99.90;;;;;;4918083;28;92799;-83
2023/12/25 05:11:04;;;;;;;5.20;0.93;;;11.90;99.90;;;;;;4916868;28;92471;-80
2023/12/25 05:13:30;;;;;;;2.72;0.70;;;11.90;99.90;;;;;;4924255;28;93014;-82
2023/12/25 05:15:56;;;;;;;4.18;0.80;;;11.90;99.90;;;;;;4932445;28;92536;-81
2023/12/25 05:18:24;;;;;;;3.75;1.67;;;11.90;99.90;;;;;;4914697;28;93654;-80
2023/12/25 05:20:50;;;;;;;2.33;0.73;;;11.90;99.90;;;;;;4918355;28;92671;-84
2023/12/25 05:23:16;;;;;;;5.05;0.80;;;11.90;99.90;;;;;;4922382;28;92249;-81
2023/12/25 05:25:47;;;;;;;3.72;0.50;;;11.90;99.90;;;;;;4925353;28;92298;-80
2023/12/25 05:28:13;;;;;;;2.92;0.55;;;11.90;99.90;;;;;;4929471;28;92207;-80
2023/12/25 05:30:39;;;;;;;6.13;0.75;;;11.90;99.90;;;;;;4919954;28;93254;-82
2023/12/25 05:33:05;;;;;;;3.15;0.70;;;12.00;99.90;;;;;;4933417;28;92426;-83
2023/12/25 05:35:32;;;;;;;3.25;0.70;;;12.00;99.90;;;;;;4919021;28;92424;-82
2023/12/25 05:37:58;;;;;;;3.90;0.50;;;11.90;99.90;;;;;;4894109;28;94642;-80
2023/12/25 05:40:24;;;;;;;3.55;0.60;;;12.00;99.90;;;;;;4916289;28;92970;-80
2023/12/25 05:42:50;;;;;;;5.15;0.88;;;12.00;99.90;;;;;;4933062;28;92133;-81
2023/12/25 05:45:18;;;;;;;2.30;0.40;;;12.00;99.90;;;;;;4916547;28;92153;-81
2023/12/25 05:47:44;;;;;;;5.60;0.60;;;12.00;99.90;;;;;;4903289;28;93834;-80
2023/12/25 05:50:10;;;;;;;3.25;0.60;;;12.00;99.90;;;;;;4931503;28;92663;-81
2023/12/25 05:52:36;;;;;;;6.72;0.70;;;12.00;99.90;;;;;;4918272;28;92236;-81
2023/12/25 05:55:02;;;;;;;5.55;0.52;;;12.00;99.90;;;;;;4936186;28;91421;-81
2023/12/25 05:57:30;;;;;;;5.97;0.52;;;12.10;99.90;;;;;;4918583;28;93393;-81
2023/12/25 05:59:56;;;;;;;4.18;0.63;;;12.10;99.90;;;;;;4935367;28;92466;-79
2023/12/25 06:02:22;;;;;;;2.70;0.45;;;12.10;99.90;;;;;;4915704;28;93286;-81
2023/12/25 06:04:48;;;;;;;1.58;0.47;;;12.10;99.90;;;;;;4916719;28;92884;-80
2023/12/25 06:07:14;;;;;;;3.40;0.52;;;12.10;99.90;;;;;;4918184;28;92591;-80
2023/12/25 06:09:41;;;;;;;2.00;0.40;;;12.10;99.90;;;;;;4919627;28;94023;-82
2023/12/25 06:12:07;;;;;;;1.98;0.50;;;12.10;99.90;;;;;;4937244;28;92504;-80
2023/12/25 06:14:36;;;;;;;1.50;0.60;;;12.10;99.90;;;;;;4917898;28;92395;-81
2023/12/25 06:17:04;;;;;;;3.28;0.50;;;12.00;99.90;;;;;;4918615;28;92577;-82
2023/12/25 06:19:30;;;;;;;3.42;0.38;;;12.10;99.90;;;;;;4933226;28;92965;-80
2023/12/25 06:21:56;;;;;;;1.55;0.40;;;12.10;99.90;;;;;;4920847;28;91795;-80
2023/12/25 06:24:22;;;;;;;0.70;0.30;;;12.10;99.90;;;;;;4885714;28;92527;-82
2023/12/25 06:26:48;;;;;;;2.08;0.40;;;12.10;99.90;;;;;;4934437;28;94191;-81
2023/12/25 06:29:14;;;;;;;1.23;0.20;;;12.10;99.90;;;;;;4917079;28;94053;-80
2023/12/25 06:31:44;;;;;;;1.88;0.40;;;12.10;99.90;;;;;;4917468;28;92816;-83
2023/12/25 06:34:10;;;;;;;0.90;0.30;;;12.10;99.90;;;;;;4913391;28;92659;-80
2023/12/25 06:36:36;;;;;;;1.40;0.50;;;12.10;99.90;;;;;;4917704;28;94030;-80
2023/12/25 06:39:02;;;;;;;1.13;0.40;;;12.10;99.90;;;;;;4903386;28;92909;-81
2023/12/25 06:41:28;;;;;;;1.00;0.28;;;12.10;99.90;;;;;;4914973;28;92797;-80
2023/12/25 06:43:54;;;;;;;1.35;0.30;;;12.10;99.90;;;;;;4930806;28;91600;-81
2023/12/25 06:46:20;;;;;;;3.08;0.40;;;12.10;99.90;;;;;;4931487;28;93376;-80
2023/12/25 06:48:47;;;;;;;2.33;0.65;;;12.10;99.90;;;;;;4916771;28;92559;-80
2023/12/25 06:51:13;;;;;;;1.02;0.30;;;12.20;99.90;;;;;;4907589;28;94508;-80
2023/12/25 06:53:39;;;;;;;4.20;0.50;;;12.10;99.90;;;;;;4916405;28;92481;-81
2023/12/25 06:56:07;;;;;;;1.17;0.35;;;12.10;99.90;;;;;;4914338;28;92220;-80
2023/12/25 06:58:33;;;;;;;1.40;0.40;;;12.10;99.90;;;;;;4917103;28;92876;-80
2023/12/25 07:01:05;;;;;;;1.15;0.32;;;12.20;99.90;;;;;;4915924;28;92606;-82
2023/12/25 07:03:33;;;;;;;5.35;0.30;;;12.30;99.90;;;;;;4932536;28;92426;-82
2023/12/25 07:06:11;;;;;;;1.00;0.30;;;12.20;99.90;;;;;;4934601;28;92996;-82
2023/12/25 07:08:36;;;;;;;2.92;0.30;;;12.10;99.90;;;;;;4917689;28;93498;-81
2023/12/25 07:11:03;;;;;;;1.10;0.38;;;12.00;99.90;;;;;;4910214;28;92220;-83
2023/12/25 07:13:33;;;;;;;0.73;0.30;;;11.70;99.90;;;;;;4917596;28;92586;-81
2023/12/25 07:16:00;;;;;;;1.38;0.40;;;11.60;99.90;;;;;;4914310;28;94641;-82
2023/12/25 07:18:26;;;;;;;0.80;0.20;;;11.40;99.90;;;;;;4932941;28;93506;-84
2023/12/25 07:20:52;;;;;;;1.75;0.20;;;11.40;99.90;;;;;;4915707;28;92337;-80
2023/12/25 07:28:29;;;;;;;0.32;0.30;;;11.30;99.90;;;;;;5117859;22;92416;-80
2023/12/25 07:30:57;;;;;;;2.10;0.25;;;11.30;99.90;;;;;;4942026;28;92031;-82
2023/12/25 07:33:23;;;;;;;1.15;0.20;;;11.30;99.90;;;;;;4944030;28;91496;-83
2023/12/25 07:36:15;;;;;;;0.30;0.20;;;11.20;99.90;;;;;;4961128;28;93905;-83
2023/12/25 07:38:45;;;;;;;0.88;0.20;;;11.20;99.90;;;;;;4961824;28;92341;-84
2023/12/25 07:44:48;;;;;;;0.20;0.20;;;11.20;99.90;;;;;;4960670;28;91980;-82
2023/12/25 07:47:13;;;;;;;2.92;0.20;;;11.30;99.90;;;;;;4939308;28;93001;-79
2023/12/25 07:49:48;;;;;;;0.55;0.20;;;11.20;99.90;;;;;;4935401;28;96247;-80
2023/12/25 07:52:14;;;;;;;0.70;0.20;;;11.20;99.90;;;;;;4947195;28;92039;-81
2023/12/25 07:58:10;;;;;;;0.50;0.30;;;11.20;99.90;;;;;;4941804;28;96007;-79
2023/12/25 08:00:36;;;;;;;1.45;0.10;;;11.20;99.90;;;;;;4949703;28;92409;-83
2023/12/25 08:03:12;;;;;;;0.98;0.20;;;11.30;99.90;;;;;;4927924;28;92577;-80
2023/12/25 08:05:38;;;;;;;0.75;0.63;;;11.20;99.90;;;;;;4944942;28;92052;-81
2023/12/25 08:08:26;;;;;;;0.45;0.20;;;11.30;99.90;;;;;;4951621;28;94536;-81
2023/12/25 08:10:52;;;;;;;2.45;0.20;;;11.30;99.90;;;;;;4944625;28;95267;-79
2023/12/25 08:13:18;;;;;;;1.45;0.20;;;11.30;99.90;;;;;;4939715;28;92250;-80
2023/12/25 08:15:51;;;;;;;0.63;0.10;;;11.20;99.90;;;;;;4944526;28;92520;-81
2023/12/25 08:18:17;;;;;;;0.52;0.25;;;11.30;99.90;;;;;;4931409;28;99086;-82
2023/12/25 08:20:48;;;;;;;0.50;0.20;;;11.30;99.90;;;;;;4940562;28;92713;-80
2023/12/25 08:23:14;;;;;;;0.55;0.20;;;11.30;99.90;;;;;;4940462;28;92113;-81
2023/12/25 08:25:49;;;;;;;0.15;0.15;;;11.30;99.90;;;;;;4945662;28;91844;-82
2023/12/25 08:28:21;;;;;;;0.75;0.20;;;11.30;99.90;;;;;;4942155;28;93810;-79
2023/12/25 08:30:47;;;;;;;0.20;0.20;;;11.30;99.90;;;;;;4942643;28;93479;-81
2023/12/25 08:33:14;;;;;;;0.45;0.28;;;11.40;99.90;;;;;;4941598;28;93361;-80
2023/12/25 08:35:40;;;;;;;1.52;0.25;;;11.30;99.90;;;;;;4937752;28;92617;-79
2023/12/25 08:38:05;;;;;;;2.33;0.20;;;11.30;99.90;;;;;;4919126;28;94839;-78
2023/12/25 08:40:31;;;;;;;0.40;0.20;;;11.40;99.90;;;;;;4949941;28;93108;-82
2023/12/25 08:42:57;;;;;;;0.20;0.13;;;11.40;99.90;;;;;;4958648;28;91993;-81
2023/12/25 08:45:24;;;;;;;0.55;0.35;;;11.30;99.90;;;;;;4960300;28;92097;-82
2023/12/25 08:47:52;;;;;;;4.13;0.30;;;11.40;99.90;;;;;;4958441;28;92240;-81
2023/12/25 08:50:18;;;;;;;1.00;0.30;;;11.30;99.90;;;;;;5034155;22;91949;-82
2023/12/25 09:40:29;;;;;;;0.40;0.20;;;11.40;99.90;;;;;;5040720;22;92553;-86
2023/12/25 09:53:39;;;;;;;1.00;0.47;;;11.50;99.90;;;;;;5999862;22;94443;-85
2023/12/25 10:06:19;;;;;;;5.50;0.40;;;11.60;99.90;;;;;;4904387;28;92292;-88
2023/12/25 11:31:24;;;;;;;1.27;0.40;;;12.10;99.90;;;;;;5336885;22;93649;-81
2023/12/25 11:33:52;;;;;;;1.02;0.32;;;12.10;99.90;;;;;;4997757;27;93333;-80
2023/12/25 11:36:19;;;;;;;1.00;0.60;;;12.10;99.90;;;;;;4981420;28;91885;-82
2023/12/25 11:38:54;;;;;;;0.40;0.40;;;12.10;99.90;;;;;;5041892;22;92829;-83
2023/12/25 11:41:20;;;;;;;0.90;0.50;;;12.10;99.90;;;;;;4932422;28;96312;-80
2023/12/25 11:43:49;;;;;;;1.10;0.50;;;12.10;99.90;;;;;;4930985;28;95583;-80
2023/12/25 11:46:20;;;;;;;1.60;0.50;;;12.10;99.90;;;;;;4946611;28;92173;-80
2023/12/25 11:48:48;;;;;;;1.08;0.73;;;12.10;99.90;;;;;;4949402;28;92662;-80
2023/12/25 11:51:22;;;;;;;0.93;0.40;;;12.10;99.90;;;;;;4947848;28;97412;-79
2023/12/25 11:53:52;;;;;;;3.15;0.50;;;12.10;99.90;;;;;;4956276;28;94790;-80
2023/12/25 11:56:18;;;;;;;1.95;0.50;;;12.10;99.90;;;;;;4930909;28;91970;-81
2023/12/25 11:58:46;;;;;;;0.60;0.45;;;12.10;99.90;;;;;;4949420;28;91445;-80
2023/12/25 12:01:17;;;;;;;2.17;0.50;;;12.00;99.90;;;;;;4931957;28;95005;-80
2023/12/25 12:03:52;;;;;;;1.95;0.50;;;12.00;99.90;;;;;;4930950;28;94144;-80
2023/12/25 12:06:19;;;;;;;0.98;0.60;;;12.00;99.90;;;;;;4959823;28;92817;-80
2023/12/25 12:08:47;;;;;;;2.35;0.55;;;12.00;99.90;;;;;;4955343;28;92499;-81
2023/12/25 12:11:14;;;;;;;3.55;0.80;;;12.00;99.90;;;;;;4955238;28;94983;-80
2023/12/25 12:13:40;;;;;;;2.90;0.77;;;12.00;99.90;;;;;;4950702;28;92487;-81
2023/12/25 12:16:07;;;;;;;1.30;0.60;;;11.90;99.90;;;;;;4951041;28;92308;-80
2023/12/25 12:18:33;;;;;;;3.05;0.70;;;11.90;99.90;;;;;;4952254;28;92487;-79
2023/12/25 12:20:59;;;;;;;1.13;0.47;;;11.90;99.90;;;;;;4934977;28;93386;-81
2023/12/25 12:23:31;;;;;;;1.38;0.50;;;11.90;99.90;;;;;;4955783;28;94191;-80
2023/12/25 12:26:00;;;;;;;1.42;0.40;;;11.90;99.90;;;;;;4936110;28;92449;-81
2023/12/25 12:28:32;;;;;;;0.77;0.50;;;12.00;99.90;;;;;;4936760;28;91707;-81
2023/12/25 12:30:58;;;;;;;1.25;0.50;;;12.00;99.90;;;;;;4951517;28;95462;-82
2023/12/25 12:33:24;;;;;;;0.52;0.40;;;12.00;99.90;;;;;;4937849;28;93397;-80
2023/12/25 12:35:51;;;;;;;0.73;0.50;;;12.00;99.90;;;;;;4947103;28;92820;-79
2023/12/25 12:38:16;;;;;;;0.70;0.40;;;12.00;99.90;;;;;;4949888;28;92091;-80
2023/12/25 12:40:43;;;;;;;0.40;0.40;;;12.00;99.90;;;;;;4934598;28;94144;-79
2023/12/25 12:43:09;;;;;;;2.17;0.50;;;12.00;99.90;;;;;;4932548;28;96160;-80
2023/12/25 12:45:44;;;;;;;0.40;0.40;;;12.00;99.90;;;;;;4949894;28;92122;-80
2023/12/25 12:48:10;;;;;;;0.93;0.30;;;12.00;99.90;;;;;;4949238;28;91616;-79
2023/12/25 12:50:36;;;;;;;0.35;0.30;;;12.00;99.90;;;;;;4947051;28;93491;-82
2023/12/25 12:53:02;;;;;;;1.38;0.30;;;12.00;99.90;;;;;;4947461;28;92768;-81
2023/12/25 12:55:30;;;;;;;1.27;0.30;;;12.10;99.90;;;;;;4931440;28;93467;-80
2023/12/25 12:57:56;;;;;;;0.30;0.30;;;12.10;99.90;;;;;;4929472;28;92375;-81
2023/12/25 13:00:22;;;;;;;1.20;0.30;;;12.10;99.90;;;;;;4949703;28;92249;-79
2023/12/25 13:02:52;;;;;;;0.32;0.30;;;12.10;99.90;;;;;;4929781;28;92471;-80
2023/12/25 13:05:18;;;;;;;0.75;0.30;;;12.10;99.90;;;;;;4953217;28;95771;-80
2023/12/25 13:07:45;;;;;;;0.30;0.30;;;12.10;99.90;;;;;;4929555;28;92227;-79
2023/12/25 13:10:11;;;;;;;0.95;0.30;;;12.20;99.90;;;;;;4947315;28;94356;-81
2023/12/25 13:12:36;;;;;;;1.15;0.40;;;12.20;99.90;;;;;;4949714;28;93268;-80
2023/12/25 13:15:03;;;;;;;0.35;0.35;;;12.20;99.90;;;;;;4947600;28;92354;-80
2023/12/25 13:17:29;;;;;;;1.90;0.40;;;12.20;99.90;;;;;;4928420;28;92122;-80
2023/12/25 13:19:55;;;;;;;2.08;0.40;;;12.20;99.90;;;;;;4928059;28;96014;-79
2023/12/25 13:22:22;;;;;;;0.70;0.30;;;12.20;99.90;;;;;;4945167;28;92803;-79
2023/12/25 13:24:48;;;;;;;0.73;0.50;;;12.20;99.90;;;;;;4947140;28;93329;-79
2023/12/25 13:27:14;;;;;;;2.10;0.47;;;12.20;99.90;;;;;;4949339;28;92345;-81
2023/12/25 13:29:40;;;;;;;1.02;0.45;;;12.30;99.90;;;;;;4927345;28;95283;-79
2023/12/25 13:32:06;;;;;;;1.33;0.20;;;12.30;99.90;;;;;;4936004;28;94386;-79
2023/12/25 13:34:31;;;;;;;0.40;0.40;;;12.30;99.90;;;;;;4919187;28;92858;-79
2023/12/25 13:36:57;;;;;;;0.30;0.30;;;12.30;99.90;;;;;;4940492;28;91840;-78
2023/12/25 13:39:23;;;;;;;0.30;0.30;;;12.30;99.90;;;;;;4931008;28;95159;-79
2023/12/25 13:41:49;;;;;;;0.40;0.30;;;12.30;99.90;;;;;;4943710;28;94797;-78
2023/12/25 13:44:14;;;;;;;1.92;0.52;;;12.30;99.90;;;;;;4932346;28;93410;-79
2023/12/25 13:46:40;;;;;;;1.35;0.30;;;12.30;99.90;;;;;;4929693;28;92365;-79
2023/12/25 13:49:06;;;;;;;1.48;0.50;;;12.30;99.90;;;;;;4919538;28;95265;-79
2023/12/25 13:51:32;;;;;;;3.42;0.60;;;12.30;99.90;;;;;;4926847;28;93833;-79
2023/12/25 13:54:04;;;;;;;1.27;0.47;;;12.40;99.90;;;;;;4937682;28;92691;-79
2023/12/25 13:56:30;;;;;;;1.95;0.50;;;12.40;99.90;;;;;;4912071;28;93745;-79
2023/12/25 13:58:56;;;;;;;0.50;0.30;;;12.40;99.90;;;;;;4934884;28;93744;-79
2023/12/25 14:01:21;;;;;;;0.30;0.30;;;12.30;99.90;;;;;;4931975;28;95769;-78
2023/12/25 14:03:47;;;;;;;0.30;0.30;;;12.40;99.90;;;;;;4908420;28;92891;-78
2023/12/25 14:06:13;;;;;;;1.85;0.43;;;12.40;99.90;;;;;;4925903;28;92880;-79
2023/12/25 14:08:38;;;;;;;6.90;1.67;;;12.40;99.90;;;;;;4922786;28;95729;-79
2023/12/25 14:11:04;;;;;;;0.60;0.40;;;12.40;99.90;;;;;;4908649;28;95906;-78
2023/12/25 14:13:30;;;;;;;0.30;0.30;;;12.40;99.90;;;;;;4929436;28;92582;-78
2023/12/25 14:15:55;;;;;;;2.95;0.40;;;12.40;99.90;;;;;;4921255;28;93065;-79
2023/12/25 14:18:21;;;;;;;0.40;0.40;;;12.30;99.90;;;;;;4924866;28;93893;-79
2023/12/25 14:20:47;;;;;;;1.55;0.45;;;12.40;99.90;;;;;;4922182;28;94552;-79
2023/12/25 14:23:12;;;;;;;1.23;0.40;;;12.30;99.90;;;;;;4923946;28;93433;-79
2023/12/25 14:25:38;;;;;;;0.52;0.43;;;12.30;99.90;;;;;;4922311;28;91972;-78
2023/12/25 14:28:04;;;;;;;1.05;0.30;;;12.30;99.90;;;;;;4927468;28;95637;-77
2023/12/25 14:30:29;;;;;;;1.40;0.40;;;12.30;99.90;;;;;;4923800;28;97221;-79
2023/12/25 14:32:55;;;;;;;0.40;0.40;;;12.30;99.90;;;;;;4907631;28;93231;-78
2023/12/25 14:35:21;;;;;;;1.27;0.40;;;12.30;99.90;;;;;;4905741;28;93149;-79
2023/12/25 14:37:47;;;;;;;0.70;0.40;;;12.30;99.90;;;;;;4922722;28;96254;-80
2023/12/25 14:40:16;;;;;;;1.15;0.52;;;12.30;99.90;;;;;;4924038;28;93358;-78
2023/12/25 14:42:43;;;;;;;0.50;0.43;;;12.20;99.90;;;;;;4930634;28;93188;-79
2023/12/25 14:45:09;;;;;;;3.08;0.50;;;12.20;99.90;;;;;;4924376;28;92704;-77
2023/12/25 14:47:36;;;;;;;0.93;0.80;;;12.20;99.90;;;;;;4927445;28;95178;-79
2023/12/25 14:50:02;;;;;;;0.80;0.43;;;12.20;99.90;;;;;;4904375;28;94467;-79
2023/12/25 14:52:30;;;;;;;1.10;0.45;;;12.20;99.90;;;;;;4922386;28;93112;-78
2023/12/25 14:54:57;;;;;;;0.55;0.52;;;12.20;99.90;;;;;;4922368;28;93062;-78
2023/12/25 14:57:23;;;;;;;1.85;0.40;;;12.20;99.90;;;;;;4906801;28;98186;-79
2023/12/25 14:59:49;;;;;;;0.90;0.60;;;12.20;99.90;;;;;;4922965;28;93862;-77
2023/12/25 15:02:14;;;;;;;1.75;0.73;;;12.20;99.90;;;;;;4908243;28;92745;-79
2023/12/25 15:04:40;;;;;;;2.58;0.70;;;12.20;99.90;;;;;;4923029;28;93116;-78
2023/12/25 15:07:06;;;;;;;1.08;0.60;;;12.20;99.90;;;;;;4927288;28;93716;-79
2023/12/25 15:09:32;;;;;;;1.52;0.55;;;12.20;99.90;;;;;;4934572;28;92791;-80
2023/12/25 15:11:57;;;;;;;3.97;0.65;;;12.20;99.90;;;;;;4916728;28;92375;-79
2023/12/25 15:14:23;;;;;;;1.63;0.60;;;12.20;99.90;;;;;;4928306;28;91837;-79
2023/12/25 15:16:49;;;;;;;0.60;0.60;;;12.20;99.90;;;;;;4944117;28;92696;-79
2023/12/25 15:19:15;;;;;;;0.65;0.63;;;12.10;99.90;;;;;;4930534;28;92964;-79
2023/12/25 15:21:40;;;;;;;1.85;0.88;;;12.10;99.90;;;;;;4934338;28;93389;-79
2023/12/25 15:24:06;;;;;;;1.95;0.52;;;12.10;99.90;;;;;;4950312;28;92275;-79
2023/12/25 15:26:32;;;;;;;0.70;0.60;;;12.10;99.90;;;;;;4952171;28;93029;-82
2023/12/25 15:28:58;;;;;;;1.88;0.80;;;12.00;99.90;;;;;;4952023;28;92654;-81